createdAt,value
2018-10-07T00:01:41.257Z,8.60
2018-10-07T00:04:10.627Z,9.90
2018-10-07T00:06:40.940Z,7.97
2018-10-07T00:09:10.439Z,8.90
2018-10-07T00:11:39.733Z,8.67
2018-10-07T00:14:09.288Z,8.40
2018-10-07T00:16:39.891Z,8.40
2018-10-07T00:19:08.655Z,8.43
2018-10-07T00:21:38.771Z,8.27
2018-10-07T00:24:09.306Z,10.10
2018-10-07T00:26:42.364Z,8.77
2018-10-07T00:29:11.912Z,8.67
2018-10-07T00:31:47.084Z,8.70
2018-10-07T00:34:18.064Z,9.60
2018-10-07T00:36:46.885Z,9.57
2018-10-07T00:39:16.944Z,9.10
2018-10-07T00:41:47.312Z,9.00
2018-10-07T00:44:17.066Z,9.63
2018-10-07T00:46:47.825Z,9.30
2018-10-07T00:49:18.076Z,9.13
2018-10-07T00:51:47.458Z,9.53
2018-10-07T00:54:16.201Z,8.87
2018-10-07T00:56:45.809Z,9.13
2018-10-07T00:59:14.622Z,8.43
2018-10-07T01:01:43.382Z,8.30
2018-10-07T01:04:13.507Z,8.97
2018-10-07T01:06:42.942Z,8.37
2018-10-07T01:09:14.631Z,10.20
2018-10-07T01:11:44.486Z,8.60
2018-10-07T01:14:13.792Z,8.50
2018-10-07T01:16:44.883Z,9.17
2018-10-07T01:19:15.179Z,8.80
2018-10-07T01:21:45.859Z,8.50
2018-10-07T01:24:16.776Z,9.00
2018-10-07T01:26:46.315Z,9.03
2018-10-07T01:29:15.144Z,8.67
2018-10-07T01:31:44.663Z,9.40
2018-10-07T01:34:14.210Z,8.77
2018-10-07T01:36:43.105Z,9.07
2018-10-07T01:39:13.118Z,9.20
2018-10-07T01:41:42.458Z,9.13
2018-10-07T01:44:12.324Z,8.97
2018-10-07T01:46:42.057Z,8.90
2018-10-07T01:49:10.528Z,9.07
2018-10-07T01:51:41.016Z,8.87
2018-10-07T01:54:11.927Z,8.80
2018-10-07T01:56:41.119Z,9.17
2018-10-07T01:59:10.810Z,8.70
2018-10-07T02:01:39.601Z,8.97
2018-10-07T02:04:11.282Z,9.17
2018-10-07T02:06:40.743Z,9.70
2018-10-07T02:09:12.139Z,9.07
2018-10-07T02:11:43.247Z,9.20
2018-10-07T02:14:12.794Z,8.37
2018-10-07T02:16:42.743Z,9.90
2018-10-07T02:19:12.268Z,9.77
2018-10-07T02:21:41.713Z,8.93
2018-10-07T02:24:11.781Z,9.40
2018-10-07T02:26:42.474Z,9.17
2018-10-07T02:29:11.787Z,9.20
2018-10-07T02:31:40.558Z,9.20
2018-10-07T02:34:11.578Z,9.57
2018-10-07T02:36:40.621Z,9.50
2018-10-07T02:39:12.584Z,9.80
2018-10-07T02:41:42.611Z,9.40
2018-10-07T02:44:11.852Z,9.03
2018-10-07T02:46:43.727Z,8.53
2018-10-07T02:49:14.390Z,8.70
2018-10-07T02:51:43.538Z,9.60
2018-10-07T02:54:14.598Z,9.40
2018-10-07T02:56:43.951Z,10.10
2018-10-07T02:59:15.683Z,10.23
2018-10-07T03:01:45.591Z,10.40
2018-10-07T03:04:14.597Z,9.07
2018-10-07T03:06:43.893Z,8.63
2018-10-07T03:09:18.775Z,9.63
2018-10-07T03:11:48.259Z,10.10
2018-10-07T03:14:18.158Z,8.60
2018-10-07T03:16:47.741Z,9.97
2018-10-07T03:19:18.533Z,9.60
2018-10-07T03:21:49.539Z,9.60
2018-10-07T03:24:18.279Z,9.10
2018-10-07T03:26:51.888Z,10.43
2018-10-07T03:29:21.352Z,10.50
2018-10-07T03:31:51.824Z,9.73
2018-10-07T03:34:22.802Z,8.87
2018-10-07T03:36:53.484Z,9.90
2018-10-07T03:39:23.221Z,10.17
2018-10-07T03:41:52.013Z,10.07
2018-10-07T03:44:25.672Z,9.37
2018-10-07T03:46:55.356Z,9.63
2018-10-07T03:49:25.199Z,10.07
2018-10-07T03:51:56.999Z,10.40
2018-10-07T03:54:28.013Z,9.10
2018-10-07T03:56:58.146Z,11.17
2018-10-07T03:59:26.951Z,9.67
2018-10-07T04:01:56.999Z,10.13
2018-10-07T04:04:26.340Z,9.67
2018-10-07T04:06:56.602Z,9.17
2018-10-07T04:09:26.940Z,9.03
2018-10-07T04:11:57.039Z,9.30
2018-10-07T04:14:26.312Z,9.47
2018-10-07T04:16:55.065Z,9.40
2018-10-07T04:19:24.108Z,8.20
2018-10-07T04:21:55.209Z,9.23
2018-10-07T04:24:27.013Z,8.33
2018-10-07T04:26:56.310Z,10.57
2018-10-07T04:29:27.219Z,8.50
2018-10-07T04:31:56.749Z,8.83
2018-10-07T04:34:25.244Z,9.10
2018-10-07T04:36:56.275Z,8.40
2018-10-07T04:39:26.828Z,9.33
2018-10-07T04:42:01.515Z,9.20
2018-10-07T04:44:31.129Z,8.93
2018-10-07T04:47:00.667Z,8.33
2018-10-07T04:49:29.160Z,9.87
2018-10-07T04:51:57.880Z,8.00
2018-10-07T04:54:28.373Z,8.00
2018-10-07T04:56:58.521Z,9.20
2018-10-07T04:59:28.427Z,9.30
2018-10-07T05:01:59.483Z,8.07
2018-10-07T05:04:28.670Z,8.77
2018-10-07T05:07:13.127Z,8.50
2018-10-07T05:09:41.686Z,9.50
2018-10-07T05:12:11.914Z,8.30
2018-10-07T05:14:43.564Z,8.77
2018-10-07T05:17:16.440Z,8.43
2018-10-07T05:19:45.557Z,8.20
2018-10-07T05:22:15.601Z,8.03
2018-10-07T05:24:45.647Z,8.90
2018-10-07T05:27:17.103Z,8.50
2018-10-07T05:29:45.828Z,8.00
2018-10-07T05:32:14.575Z,9.07
2018-10-07T05:34:44.296Z,9.90
2018-10-07T05:37:13.501Z,8.67
2018-10-07T05:39:44.351Z,8.10
2018-10-07T05:42:12.993Z,10.10
2018-10-07T05:44:42.372Z,9.23
2018-10-07T05:47:15.103Z,9.10
2018-10-07T05:49:45.284Z,9.07
2018-10-07T05:52:16.683Z,8.17
2018-10-07T05:54:45.232Z,8.70
2018-10-07T05:57:16.841Z,9.80
2018-10-07T05:59:46.471Z,9.27
2018-10-07T06:02:15.956Z,8.93
2018-10-07T06:04:49.998Z,8.80
2018-10-07T06:07:19.657Z,9.33
2018-10-07T06:09:49.763Z,8.70
2018-10-07T06:12:19.132Z,9.20
2018-10-07T06:14:58.888Z,8.63
2018-10-07T06:17:28.445Z,8.00
2018-10-07T06:19:57.315Z,9.30
2018-10-07T06:22:26.960Z,9.07
2018-10-07T06:24:58.040Z,8.57
2018-10-07T06:27:27.238Z,8.90
2018-10-07T06:29:58.281Z,9.20
2018-10-07T06:32:27.042Z,8.87
2018-10-07T06:34:56.805Z,7.53
2018-10-07T06:37:26.408Z,8.03
2018-10-07T06:39:55.557Z,8.13
2018-10-07T06:42:26.853Z,8.77
2018-10-07T06:44:56.536Z,9.03
2018-10-07T06:47:27.655Z,8.97
2018-10-07T06:49:58.471Z,10.63
2018-10-07T06:52:30.599Z,9.23
2018-10-07T06:54:59.726Z,9.47
2018-10-07T06:57:31.752Z,9.23
2018-10-07T07:00:04.923Z,9.50
2018-10-07T07:02:35.553Z,10.10
2018-10-07T07:05:04.484Z,9.40
2018-10-07T07:07:33.507Z,9.77
2018-10-07T07:10:04.100Z,8.80
2018-10-07T07:12:36.239Z,9.60
2018-10-07T07:15:06.238Z,9.00
2018-10-07T07:17:35.895Z,8.60
2018-10-07T07:20:05.524Z,8.87
2018-10-07T07:22:34.311Z,8.13
2018-10-07T07:25:04.093Z,8.37
2018-10-07T07:27:34.135Z,8.20
2018-10-07T07:30:03.943Z,8.30
2018-10-07T07:32:32.703Z,8.00
2018-10-07T07:35:02.655Z,8.47
2018-10-07T07:37:32.606Z,7.47
2018-10-07T07:40:03.710Z,8.43
2018-10-07T07:42:33.097Z,8.27
2018-10-07T07:45:02.836Z,8.20
2018-10-07T07:47:35.180Z,8.90
2018-10-07T07:50:05.558Z,7.97
2018-10-07T07:52:35.273Z,8.10
2018-10-07T07:55:04.627Z,7.77
2018-10-07T07:57:34.168Z,7.20
2018-10-07T08:00:04.373Z,6.50
2018-10-07T08:02:33.731Z,7.07
2018-10-07T08:05:02.863Z,6.80
2018-10-07T08:07:31.469Z,7.00
2018-10-07T08:10:01.673Z,6.60
2018-10-07T08:12:30.628Z,6.80
2018-10-07T08:15:01.023Z,6.20
2018-10-07T08:17:30.700Z,6.60
2018-10-07T08:19:59.856Z,6.40
2018-10-07T08:22:28.802Z,5.40
2018-10-07T08:24:58.493Z,4.67
2018-10-07T08:27:27.359Z,5.10
2018-10-07T08:29:56.389Z,5.43
2018-10-07T08:32:25.950Z,4.83
2018-10-07T08:34:56.013Z,5.23
2018-10-07T08:37:25.611Z,5.67
2018-10-07T08:40:01.007Z,5.30
2018-10-07T08:42:30.159Z,5.47
2018-10-07T08:45:00.245Z,5.30
2018-10-07T08:47:28.966Z,6.47
2018-10-07T08:49:59.535Z,5.53
2018-10-07T08:52:28.592Z,5.53
2018-10-07T08:54:57.940Z,5.60
2018-10-07T08:57:27.553Z,5.43
2018-10-07T08:59:57.128Z,6.20
2018-10-07T09:02:26.240Z,5.50
2018-10-07T09:04:57.421Z,5.10
2018-10-07T09:07:26.839Z,6.00
2018-10-07T09:09:57.165Z,6.07
2018-10-07T09:12:27.060Z,5.30
2018-10-07T09:14:56.815Z,5.90
2018-10-07T09:17:26.604Z,5.30
2018-10-07T09:19:55.590Z,5.80
2018-10-07T09:22:25.325Z,5.10
2018-10-07T09:25:25.578Z,6.40
2018-10-07T09:27:56.544Z,5.93
2018-10-07T09:30:27.611Z,5.00
2018-10-07T09:32:57.077Z,5.23
2018-10-07T09:35:32.769Z,5.97
2018-10-07T09:38:04.575Z,5.60
2018-10-07T09:40:33.653Z,6.17
2018-10-07T09:43:04.440Z,6.57
2018-10-07T09:45:35.668Z,5.00
2018-10-07T09:48:09.392Z,5.37
2018-10-07T09:50:39.745Z,5.67
2018-10-07T09:53:08.930Z,5.40
2018-10-07T09:55:39.476Z,5.93
2018-10-07T09:58:09.225Z,5.00
2018-10-07T10:00:41.172Z,4.80
2018-10-07T10:03:12.146Z,4.93
2018-10-07T10:05:43.347Z,5.17
2018-10-07T10:08:13.003Z,5.30
2018-10-07T10:10:43.195Z,5.93
2018-10-07T10:13:13.574Z,5.60
2018-10-07T10:15:44.175Z,5.77
2018-10-07T10:18:18.027Z,6.10
2018-10-07T10:20:55.600Z,5.17
2018-10-07T10:25:34.157Z,5.20
2018-10-07T10:28:09.871Z,5.13
2018-10-07T10:30:47.040Z,5.77
2018-10-07T10:33:34.089Z,5.90
2018-10-07T10:36:39.235Z,5.50
2018-10-07T10:39:21.556Z,5.07
2018-10-07T10:42:09.830Z,5.37
2018-10-07T10:44:49.628Z,5.20
2018-10-07T10:47:36.760Z,4.90
2018-10-07T10:50:44.463Z,5.07
2018-10-07T10:53:35.440Z,5.30
2018-10-07T10:56:46.607Z,5.10
2018-10-07T10:59:24.079Z,5.27
2018-10-07T11:02:02.066Z,4.70
2018-10-07T11:04:38.645Z,4.80
2018-10-07T11:07:19.715Z,4.67
2018-10-07T11:10:05.012Z,5.43
2018-10-07T11:15:48.838Z,5.33
2018-10-07T11:19:32.298Z,4.20
2018-10-07T11:24:16.787Z,4.67
2018-10-07T11:27:58.176Z,5.10
2018-10-07T11:30:39.340Z,5.77
2018-10-07T11:34:02.835Z,5.50
2018-10-07T11:38:53.196Z,4.57
2018-10-07T11:41:32.709Z,4.27
2018-10-07T11:45:09.827Z,5.20
2018-10-07T11:48:52.826Z,4.60
2018-10-07T11:51:32.292Z,5.63
2018-10-07T11:54:05.343Z,5.50
2018-10-07T11:56:35.020Z,4.77
2018-10-07T11:59:04.506Z,4.60
2018-10-07T12:01:34.207Z,4.90
2018-10-07T12:04:06.038Z,5.37
2018-10-07T12:06:36.367Z,5.23
2018-10-07T12:09:06.759Z,5.27
2018-10-07T12:11:37.317Z,5.20
2018-10-07T12:14:05.781Z,5.10
2018-10-07T12:16:34.386Z,5.03
2018-10-07T12:19:04.681Z,5.57
2018-10-07T12:21:34.520Z,5.23
2018-10-07T12:24:04.548Z,5.90
2018-10-07T12:26:34.767Z,5.20
2018-10-07T12:29:04.082Z,5.10
2018-10-07T12:31:35.447Z,4.73
2018-10-07T12:34:03.947Z,4.83
2018-10-07T12:36:32.966Z,5.20
2018-10-07T12:39:04.357Z,5.17
2018-10-07T12:41:33.491Z,4.73
2018-10-07T12:44:04.104Z,4.80
2018-10-07T12:46:33.163Z,4.57
2018-10-07T12:49:03.192Z,4.03
2018-10-07T12:51:33.903Z,5.13
2018-10-07T12:54:03.336Z,4.50
2018-10-07T12:56:32.233Z,4.80
2018-10-07T12:59:03.031Z,4.33
2018-10-07T13:01:33.403Z,5.30
2018-10-07T13:04:03.520Z,5.73
2018-10-07T13:06:34.934Z,4.20
2018-10-07T13:09:05.779Z,4.83
2018-10-07T13:11:34.859Z,5.27
2018-10-07T13:14:05.005Z,5.93
2018-10-07T13:16:33.915Z,4.90
2018-10-07T13:19:03.473Z,5.10
2018-10-07T13:21:33.537Z,5.40
2018-10-07T13:24:04.228Z,5.63
2018-10-07T13:26:36.717Z,4.83
2018-10-07T13:29:05.829Z,5.43
2018-10-07T13:31:34.634Z,6.57
2018-10-07T13:34:03.250Z,6.63
2018-10-07T13:36:34.276Z,5.97
2018-10-07T13:39:04.499Z,5.70
2018-10-07T13:41:33.915Z,6.00
2018-10-07T13:44:04.490Z,5.83
2018-10-07T13:46:33.665Z,6.30
2018-10-07T13:49:07.591Z,6.20
2018-10-07T13:51:37.396Z,6.27
2018-10-07T13:54:07.401Z,5.37
2018-10-07T13:56:36.922Z,5.30
2018-10-07T13:59:05.747Z,8.07
2018-10-07T14:01:35.649Z,6.60
2018-10-07T14:04:05.085Z,6.63
2018-10-07T14:06:34.464Z,6.10
2018-10-07T14:09:05.008Z,5.73
2018-10-07T14:11:35.199Z,6.33
2018-10-07T14:14:05.082Z,6.33
2018-10-07T14:16:35.301Z,6.43
2018-10-07T14:19:06.291Z,6.00
2018-10-07T14:21:37.472Z,6.27
2018-10-07T14:24:06.379Z,5.90
2018-10-07T14:26:36.401Z,5.60
2018-10-07T14:29:06.657Z,5.77
2018-10-07T14:31:36.266Z,7.63
2018-10-07T14:34:05.120Z,6.90
2018-10-07T14:36:35.241Z,6.90
2018-10-07T14:39:05.010Z,6.50
2018-10-07T14:41:36.009Z,6.47
2018-10-07T14:44:05.143Z,6.97
2018-10-07T14:46:34.244Z,7.00
2018-10-07T14:49:05.243Z,7.37
2018-10-07T14:51:34.182Z,7.10
2018-10-07T14:54:04.660Z,7.50
2018-10-07T14:56:34.175Z,6.07
2018-10-07T14:59:04.544Z,7.60
2018-10-07T15:01:35.077Z,8.17
2018-10-07T15:04:04.544Z,8.10
2018-10-07T15:06:35.995Z,8.10
2018-10-07T15:09:06.590Z,7.37
2018-10-07T15:11:35.692Z,9.60
2018-10-07T15:14:04.247Z,8.43
2018-10-07T15:16:34.243Z,8.20
2018-10-07T15:19:05.008Z,8.50
2018-10-07T15:21:34.882Z,9.73
2018-10-07T15:24:05.370Z,9.27
2018-10-07T15:26:34.392Z,7.53
2018-10-07T15:29:04.107Z,7.93
2018-10-07T15:31:33.040Z,8.60
2018-10-07T15:34:05.875Z,8.70
2018-10-07T15:36:35.796Z,10.30
2018-10-07T15:39:07.363Z,7.57
2018-10-07T15:41:37.413Z,8.77
2018-10-07T15:44:07.553Z,9.23
2018-10-07T15:46:36.913Z,8.40
2018-10-07T15:49:06.214Z,9.47
2018-10-07T15:51:36.640Z,10.37
2018-10-07T15:54:06.106Z,10.67
2018-10-07T15:56:35.832Z,10.50
2018-10-07T15:59:06.742Z,9.93
2018-10-07T16:01:37.853Z,9.63
2018-10-07T16:04:10.182Z,10.07
2018-10-07T16:06:40.003Z,9.63
2018-10-07T16:09:09.998Z,10.10
2018-10-07T16:11:40.904Z,10.70
2018-10-07T16:14:11.690Z,11.80
2018-10-07T16:16:41.567Z,9.70
2018-10-07T16:19:11.247Z,9.50
2018-10-07T16:21:42.514Z,9.53
2018-10-07T16:25:38.352Z,9.93
2018-10-07T16:28:08.906Z,9.30
2018-10-07T16:30:37.676Z,9.50
2018-10-07T16:33:08.648Z,9.23
2018-10-07T16:35:38.440Z,8.90
2018-10-07T16:38:08.155Z,9.67
2018-10-07T16:40:38.203Z,9.93
2018-10-07T16:43:08.888Z,9.67
2018-10-07T16:45:38.810Z,10.43
2018-10-07T16:48:09.681Z,10.30
2018-10-07T16:50:39.934Z,10.67
2018-10-07T16:53:09.627Z,9.73
2018-10-07T16:55:39.534Z,10.40
2018-10-07T16:58:08.685Z,10.83
2018-10-07T17:00:38.199Z,11.33
2018-10-07T17:03:08.816Z,10.80
2018-10-07T17:05:38.257Z,11.93
2018-10-07T17:08:08.482Z,13.40
2018-10-07T17:10:37.930Z,12.73
2018-10-07T17:13:06.823Z,11.50
2018-10-07T17:15:37.338Z,12.77
2018-10-07T17:18:07.711Z,14.10
2018-10-07T17:20:39.130Z,14.20
2018-10-07T17:23:07.985Z,13.40
2018-10-07T17:25:40.889Z,12.27
2018-10-07T17:28:10.613Z,14.10
2018-10-07T17:30:40.116Z,15.10
2018-10-07T17:33:10.196Z,15.27
2018-10-07T17:35:43.225Z,14.47
2018-10-07T17:38:14.789Z,15.10
2018-10-07T17:40:45.399Z,16.00
2018-10-07T17:43:18.440Z,16.43
2018-10-07T17:45:48.295Z,16.20
2018-10-07T17:48:20.062Z,15.23
2018-10-07T17:50:50.001Z,16.90
2018-10-07T17:53:19.637Z,16.77
2018-10-07T17:55:50.031Z,16.40
2018-10-07T17:58:19.830Z,17.17
2018-10-07T18:00:51.264Z,17.70
2018-10-07T18:03:23.857Z,16.97
2018-10-07T18:06:05.083Z,16.33
2018-10-07T18:08:34.850Z,18.17
2018-10-07T18:11:03.980Z,17.03
2018-10-07T18:13:33.137Z,17.67
2018-10-07T18:16:06.031Z,17.47
2018-10-07T18:18:36.348Z,17.30
2018-10-07T18:21:06.436Z,16.83
2018-10-07T18:23:36.773Z,15.53
2018-10-07T18:26:06.371Z,16.03
2018-10-07T18:28:37.131Z,17.23
2018-10-07T18:31:06.556Z,17.20
2018-10-07T18:33:37.464Z,16.17
2018-10-07T18:36:06.776Z,15.07
2018-10-07T18:38:36.152Z,18.47
2018-10-07T18:41:05.822Z,16.27
2018-10-07T18:43:35.489Z,15.67
2018-10-07T18:46:04.165Z,14.70
2018-10-07T18:48:34.443Z,15.73
2018-10-07T18:51:04.470Z,15.60
2018-10-07T18:53:33.221Z,15.87
2018-10-07T18:56:03.507Z,15.33
2018-10-07T18:58:32.049Z,14.87
2018-10-07T19:01:03.272Z,13.70
2018-10-07T19:03:34.184Z,15.30
2018-10-07T19:06:06.068Z,16.83
2018-10-07T19:08:35.097Z,15.43
2018-10-07T19:11:04.340Z,15.20
2018-10-07T19:13:35.075Z,15.77
2018-10-07T19:16:05.596Z,15.23
2018-10-07T19:18:36.149Z,14.20
2018-10-07T19:21:06.684Z,13.27
2018-10-07T19:23:38.670Z,15.33
2018-10-07T19:26:10.318Z,14.20
2018-10-07T19:28:39.742Z,14.10
2018-10-07T19:31:16.524Z,14.00
2018-10-07T19:33:47.781Z,15.10
2018-10-07T19:36:17.993Z,14.80
2018-10-07T19:38:47.270Z,15.50
2018-10-07T19:41:17.630Z,14.07
2018-10-07T19:43:46.174Z,13.90
2018-10-07T19:46:15.529Z,14.50
2018-10-07T19:48:44.965Z,13.20
2018-10-07T19:51:15.166Z,13.87
2018-10-07T19:53:46.229Z,14.47
2018-10-07T19:56:15.662Z,14.17
2018-10-07T19:58:47.174Z,13.90
2018-10-07T20:01:17.766Z,13.23
2018-10-07T20:03:46.905Z,13.80
2018-10-07T20:06:17.731Z,14.97
2018-10-07T20:08:49.238Z,14.93
2018-10-07T20:11:19.089Z,13.10
2018-10-07T20:13:48.655Z,14.13
2018-10-07T20:16:18.072Z,14.23
2018-10-07T20:18:49.584Z,13.80
2018-10-07T20:21:20.056Z,12.83
2018-10-07T20:23:50.165Z,14.23
2018-10-07T20:26:20.520Z,13.73
2018-10-07T20:28:49.899Z,14.30
2018-10-07T20:31:20.168Z,12.90
2018-10-07T20:33:52.591Z,14.67
2018-10-07T20:36:22.499Z,14.43
2018-10-07T20:38:51.869Z,13.83
2018-10-07T20:41:20.789Z,14.43
2018-10-07T20:43:51.233Z,12.33
2018-10-07T20:46:21.902Z,13.67
2018-10-07T20:48:51.728Z,15.10
2018-10-07T20:51:21.577Z,16.13
2018-10-07T20:53:50.813Z,15.43
2018-10-07T20:56:21.834Z,15.37
2018-10-07T20:58:52.964Z,15.70
2018-10-07T21:01:24.049Z,16.07
2018-10-07T21:03:54.624Z,15.93
2018-10-07T21:06:25.233Z,16.43
2018-10-07T21:08:55.246Z,15.13
2018-10-07T21:11:24.299Z,14.80
2018-10-07T21:13:55.145Z,13.93
2018-10-07T21:16:23.959Z,14.60
2018-10-07T21:18:52.802Z,16.17
2018-10-07T21:21:22.830Z,15.20
2018-10-07T21:23:52.802Z,15.57
2018-10-07T21:26:22.440Z,14.30
2018-10-07T21:28:52.908Z,12.93
2018-10-07T21:31:23.604Z,14.00
2018-10-07T21:33:56.940Z,13.47
2018-10-07T21:36:25.707Z,16.50
2018-10-07T21:38:54.192Z,14.90
2018-10-07T21:41:23.804Z,17.20
2018-10-07T21:43:53.423Z,15.60
2018-10-07T21:46:24.811Z,14.60
2018-10-07T21:48:54.977Z,15.00
2018-10-07T21:51:24.505Z,15.30
2018-10-07T21:53:54.544Z,15.90
2018-10-07T21:56:24.472Z,16.77
2018-10-07T21:58:54.423Z,15.20
2018-10-07T22:01:24.096Z,15.43
2018-10-07T22:03:52.743Z,17.93
2018-10-07T22:06:23.203Z,17.40
2018-10-07T22:08:52.935Z,17.00
2018-10-07T22:11:21.977Z,16.50
2018-10-07T22:13:52.103Z,17.07
2018-10-07T22:16:21.740Z,15.03
2018-10-07T22:18:50.708Z,16.57
2018-10-07T22:21:21.239Z,15.03
2018-10-07T22:23:50.170Z,16.57
2018-10-07T22:26:20.240Z,15.40
2018-10-07T22:28:50.977Z,15.50
2018-10-07T22:31:20.404Z,15.23
2018-10-07T22:33:49.856Z,13.77
2018-10-07T22:36:18.863Z,15.20
2018-10-07T22:38:48.604Z,15.30
2018-10-07T22:41:19.736Z,15.30
2018-10-07T22:43:50.561Z,16.00
2018-10-07T22:46:21.580Z,14.50
2018-10-07T22:48:52.220Z,15.03
2018-10-07T22:51:20.953Z,15.67
2018-10-07T22:53:51.751Z,14.57
2018-10-07T22:56:22.799Z,14.20
2018-10-07T22:58:52.400Z,13.47
2018-10-07T23:01:21.704Z,14.83
2018-10-07T23:03:51.624Z,13.67
2018-10-07T23:06:21.310Z,14.03
2018-10-07T23:08:50.401Z,14.33
2018-10-07T23:11:19.320Z,15.53
2018-10-07T23:13:48.470Z,14.27
2018-10-07T23:16:18.388Z,14.43
2018-10-07T23:18:49.481Z,14.53
2018-10-07T23:21:18.415Z,13.90
2018-10-07T23:23:49.488Z,15.10
2018-10-07T23:26:19.550Z,14.23
2018-10-07T23:28:49.597Z,14.83
2018-10-07T23:31:19.419Z,15.00
2018-10-07T23:33:49.538Z,13.57
2018-10-07T23:36:19.551Z,14.97
2018-10-07T23:38:48.056Z,14.63
2018-10-07T23:41:17.012Z,15.30
2018-10-07T23:43:48.085Z,14.70
2018-10-07T23:46:17.596Z,13.07
2018-10-07T23:48:48.161Z,14.83
2018-10-07T23:51:17.710Z,14.13
2018-10-07T23:53:46.212Z,14.97
2018-10-07T23:56:16.831Z,14.77
2018-10-07T23:58:46.853Z,14.30
